Airfield :
LOGIN :

Register | Disclaimer

   EN    FR    IT 

 










Legend :    VFR   Marginal VFR   IFR   Intensive IFR   Very Intensive IFR
Visi :
Ceiling :
>= 8 km
>= 3000ft
5 to 8 km
1000 to 3000 ft
1500m to 5 km
500 to 1000 ft
800 to 1500m
200 to 500 ft
< 800m
< 200 ft
Symbols :   Thunderstorms  Fog  Heavy snow  Heavy precipitations  Wind > 20 kt
SIGMETs :     Misc.  Thunderstorms  Icing  Turbulence  Mountain Waves  Volcanic Ashes







- Airport Elevation : 218 ft
- IATA code : LBG
- Download approach charts


LFPB - Paris / Le Bourget

CURRENT METAR :
  • 180730Z AUTO 25021G32KT 9999 -RA BKN015 BKN024 OVC032 11/09 Q1004 TEMPO 25025G45KT

EXPIRED METARs :
  • 180700Z AUTO 25022KT 9999 OVC015 10/09 Q1004 TEMPO 25025G45KT BKN008
  • 180630Z AUTO 25019KT 220V290 9999 BKN015 OVC024 10/08 Q1004 TEMPO 25025G45KT BKN008
  • 180600Z AUTO 24017KT 9999 OVC013 10/08 Q1004 TEMPO BKN008 BECMG 24020G35KT
  • 180530Z AUTO 24017KT 8000 -DZ OVC011 09/08 Q1004 TEMPO BKN008 BECMG 24020G35KT
  • 180500Z AUTO 24016KT 9999 OVC014 09/08 Q1004 TEMPO 4000 RA BECMG 25025G40KT

TAF TAF LFPB
Valid from the 18 at 06:00 until the 19 at 06:00 UTC


180500Z 1806/1906 24020G35KT 9999 BKN012
PROB30
TEMPO 1806/1808 BKN008
TEMPO 1808/1810 25025G45KT
BECMG 1807/1809 BKN020
PROB40
TEMPO 1818/1821 SCT015TCU
ATIS : +33 1 48 62 43 92
No reported NOTAMs for that airfield.
3 SIGMETs reported for the Paris FIR (LFFF) :
 
Severe turbulence
LFFF SIGMET 4 VALID 180600/180900 LFPW
LFFF PARIS FIR/UIR SEV TURB FCST NW OF LINE N4745 E00445 - N4715 W00015 SFC/FL060 STNR NC=
SIGMET 2  cancelation
LFFF SIGMET 3 VALID 180445/180900 LFPW
LFFF PARIS FIR/UIR CNL SIGMET 2 180500/180900=
SIGMET 2  CANCELED :
Severe turbulence
LFFF SIGMET 2 VALID 180500/180900 LFPW
LFFF PARIS FIR/UIR SEV TURB FCST WI N5000 E00500 - N4930 E00600 - N4900 E00445 - N4830 E00530 - N4730 E00415 - N4700 E00430 - N4700 E00400 - N5000 E00500 SFC/FL060 STNR INTSF=



MET'MAP, your aeronautical weather chart ! - Copyright ORBIFLY December 2007 - Disclaimer

ORBIFLY MET'MAP TEAM :

Programming & Development : Alexandra Zaïnal
Concept & Development : Baudouin d'Aumeries
Co-Development & Prog : Marc-Olivier Méhu
Technical & hardware support : Manuel Goepfert

Contact : metmap@orbifly.com




SOURCES & CREDITS :

   NOAA